createdAt,value
2022-08-05T00:00:16.020Z,94894.63
2022-08-05T00:02:51.033Z,94893.37
2022-08-05T00:06:01.767Z,94894.70
2022-08-05T00:08:30.861Z,94892.02
2022-08-05T00:11:00.747Z,94896.88
2022-08-05T00:13:38.922Z,94901.23
2022-08-05T00:16:12.936Z,94900.88
2022-08-05T00:18:44.148Z,94901.18
2022-08-05T00:21:12.230Z,94899.23
2022-08-05T00:23:45.658Z,94898.70
2022-08-05T00:26:16.324Z,94902.75
2022-08-05T00:28:45.706Z,94906.96
2022-08-05T00:31:13.442Z,94903.41
2022-08-05T00:34:55.131Z,94903.30
2022-08-05T00:37:09.721Z,94897.72
2022-08-05T00:39:14.240Z,94901.43
2022-08-05T00:41:51.449Z,94897.87
2022-08-05T00:44:21.821Z,94895.17
2022-08-05T00:46:54.252Z,94895.50
2022-08-05T00:49:32.549Z,94895.10
2022-08-05T00:52:00.303Z,94893.66
2022-08-05T00:54:28.173Z,94891.52
2022-08-05T00:56:57.446Z,94894.89
2022-08-05T00:59:24.215Z,94892.69
2022-08-05T01:01:51.152Z,94889.18
2022-08-05T01:04:20.267Z,94892.30
2022-08-05T01:06:53.752Z,94890.72
2022-08-05T01:09:22.719Z,94884.93
2022-08-05T01:11:54.017Z,94888.29
2022-08-05T01:14:52.256Z,94888.86
2022-08-05T01:17:30.281Z,94890.14
2022-08-05T01:20:20.596Z,94887.74
2022-08-05T01:22:57.856Z,94888.91
2022-08-05T01:25:56.315Z,94887.37
2022-08-05T01:28:33.475Z,94892.09
2022-08-05T01:31:27.872Z,94889.69
2022-08-05T01:34:03.439Z,94886.70
2022-08-05T01:36:42.198Z,94886.42
2022-08-05T01:39:16.141Z,94892.16
2022-08-05T01:42:05.622Z,94889.76
2022-08-05T01:44:35.466Z,94891.21
2022-08-05T01:47:05.196Z,94889.98
2022-08-05T01:50:00.477Z,94890.19
2022-08-05T01:52:23.623Z,94892.52
2022-08-05T01:54:56.795Z,94891.59
2022-08-05T01:58:10.809Z,94894.59
2022-08-05T02:00:19.070Z,94889.19
2022-08-05T02:02:58.311Z,94889.29
2022-08-05T02:05:30.601Z,94890.30
2022-08-05T02:08:01.992Z,94888.61
2022-08-05T02:10:34.947Z,94884.80
2022-08-05T02:13:54.064Z,94886.16
2022-08-05T02:16:25.720Z,94890.53
2022-08-05T02:19:14.257Z,94886.33
2022-08-05T02:21:49.276Z,94885.41
2022-08-05T02:24:19.634Z,94883.98
2022-08-05T02:26:55.123Z,94881.40
2022-08-05T02:29:59.216Z,94882.48
2022-08-05T02:32:19.942Z,94880.77
2022-08-05T02:34:54.830Z,94882.75
2022-08-05T02:37:23.698Z,94881.41
2022-08-05T02:39:53.232Z,94882.73
2022-08-05T02:42:25.931Z,94880.63
2022-08-05T02:44:57.398Z,94886.48
2022-08-05T02:47:26.023Z,94885.21
2022-08-05T02:50:15.036Z,94886.67
2022-08-05T02:52:46.449Z,94885.20
2022-08-05T02:55:14.569Z,94886.35
2022-08-05T02:58:20.175Z,94883.37
2022-08-05T03:00:35.405Z,94883.88
2022-08-05T03:03:10.163Z,94884.52
2022-08-05T03:06:54.540Z,94883.34
2022-08-05T03:08:30.020Z,94881.39
2022-08-05T03:11:50.058Z,94881.95
2022-08-05T03:13:52.238Z,94879.54
2022-08-05T03:16:29.723Z,94878.79
2022-08-05T03:18:58.426Z,94882.87
2022-08-05T03:21:28.727Z,94874.58
2022-08-05T03:23:57.158Z,94878.70
2022-08-05T03:26:31.322Z,94878.89
2022-08-05T03:28:59.974Z,94874.23
2022-08-05T03:31:57.262Z,94874.27
2022-08-05T03:34:14.685Z,94875.50
2022-08-05T03:36:41.488Z,94876.36
2022-08-05T03:39:12.983Z,94878.36
2022-08-05T03:41:47.320Z,94879.10
2022-08-05T03:44:19.900Z,94881.47
2022-08-05T03:46:47.664Z,94880.30
2022-08-05T03:49:15.713Z,94882.63
2022-08-05T03:52:49.385Z,94884.90
2022-08-05T03:55:52.829Z,94885.13
2022-08-05T03:57:51.381Z,94883.42
2022-08-05T04:00:26.088Z,94882.43
2022-08-05T04:02:58.451Z,94885.40
2022-08-05T04:05:33.857Z,94881.31
2022-08-05T04:08:29.695Z,94880.27
2022-08-05T04:10:56.596Z,94882.69
2022-08-05T04:13:25.426Z,94882.08
2022-08-05T04:16:04.191Z,94883.65
2022-08-05T04:18:34.534Z,94884.23
2022-08-05T04:21:02.403Z,94882.80
2022-08-05T04:24:05.452Z,94883.44
2022-08-05T04:26:19.327Z,94882.20
2022-08-05T04:28:47.114Z,94878.64
2022-08-05T04:31:17.899Z,94878.33
2022-08-05T04:34:18.873Z,94879.25
2022-08-05T04:36:45.712Z,94877.63
2022-08-05T04:39:13.749Z,94879.25
2022-08-05T04:41:41.180Z,94877.63
2022-08-05T04:44:08.881Z,94882.20
2022-08-05T04:46:36.896Z,94878.70
2022-08-05T04:49:03.809Z,94877.41
2022-08-05T04:51:31.280Z,94878.00
2022-08-05T04:53:58.259Z,94882.20
2022-08-05T04:56:34.628Z,94883.41
2022-08-05T04:59:17.452Z,94883.96
2022-08-05T05:02:35.401Z,94879.16
2022-08-05T05:04:44.031Z,94882.90
2022-08-05T05:07:23.899Z,94882.05
2022-08-05T05:09:56.340Z,94881.34
2022-08-05T05:12:24.496Z,94879.64
2022-08-05T05:14:54.310Z,94876.13
2022-08-05T05:17:24.332Z,94872.20
2022-08-05T05:19:56.618Z,94874.38
2022-08-05T05:22:26.050Z,94875.50
2022-08-05T05:24:57.510Z,94873.91
2022-08-05T05:27:41.323Z,94870.98
2022-08-05T05:30:15.760Z,94875.13
2022-08-05T05:32:56.678Z,94870.66
2022-08-05T05:35:24.483Z,94870.57
2022-08-05T05:38:00.322Z,94868.14
2022-08-05T05:40:31.439Z,94869.05
2022-08-05T05:42:59.877Z,94866.44
2022-08-05T05:45:29.664Z,94863.84
2022-08-05T05:48:06.350Z,94864.39
2022-08-05T05:50:42.568Z,94867.52
2022-08-05T05:53:21.235Z,94866.46
2022-08-05T05:55:52.061Z,94867.59
2022-08-05T05:58:31.404Z,94874.66
2022-08-05T06:01:02.210Z,94880.71
2022-08-05T06:03:53.605Z,94881.64
2022-08-05T06:06:28.055Z,94878.84
2022-08-05T06:09:00.488Z,94883.55
2022-08-05T06:11:29.079Z,94881.77
2022-08-05T06:13:57.124Z,94882.58
2022-08-05T06:16:30.167Z,94883.63
2022-08-05T06:19:05.661Z,94881.07
2022-08-05T06:21:36.820Z,94888.45
2022-08-05T06:24:12.057Z,94885.34
2022-08-05T06:26:51.725Z,94885.10
2022-08-05T06:29:42.932Z,94882.24
2022-08-05T06:32:21.388Z,94883.98
2022-08-05T06:34:56.379Z,94886.12
2022-08-05T06:37:56.163Z,94885.55
2022-08-05T06:40:13.039Z,94884.08
2022-08-05T06:42:41.719Z,94885.37
2022-08-05T06:45:09.666Z,94886.95
2022-08-05T06:48:44.119Z,94884.98
2022-08-05T06:50:34.558Z,94881.95
2022-08-05T06:53:03.515Z,94881.34
2022-08-05T06:55:38.038Z,94881.39
2022-08-05T06:58:20.391Z,94882.24
2022-08-05T07:01:01.738Z,94878.08
2022-08-05T07:03:32.671Z,94880.40
2022-08-05T07:06:05.972Z,94879.48
2022-08-05T07:08:47.164Z,94875.39
2022-08-05T07:11:16.514Z,94878.52
2022-08-05T07:14:07.679Z,94876.10
2022-08-05T07:18:00.090Z,94876.02
2022-08-05T07:22:27.733Z,94877.44
2022-08-05T07:24:54.910Z,94874.13
2022-08-05T07:27:23.347Z,94874.02
2022-08-05T07:30:27.873Z,94874.60
2022-08-05T07:32:45.505Z,94869.40
2022-08-05T07:36:01.939Z,94864.80
2022-08-05T07:38:07.063Z,94867.84
2022-08-05T07:40:39.490Z,94869.98
2022-08-05T07:43:20.156Z,94870.30
2022-08-05T07:45:57.180Z,94867.81
2022-08-05T07:49:00.801Z,94863.44
2022-08-05T07:51:23.784Z,94866.55
2022-08-05T07:54:03.088Z,94865.73
2022-08-05T07:57:02.933Z,94870.71
2022-08-05T07:59:16.845Z,94867.58
2022-08-05T08:01:51.728Z,94868.88
2022-08-05T08:04:37.513Z,94866.86
2022-08-05T08:07:07.398Z,94865.54
2022-08-05T08:09:35.690Z,94867.73
2022-08-05T08:12:12.473Z,94862.14
2022-08-05T08:14:47.271Z,94867.24
2022-08-05T08:17:16.220Z,94863.27
2022-08-05T08:20:21.995Z,94862.17
2022-08-05T08:22:32.433Z,94860.05
2022-08-05T08:25:02.746Z,94857.69
2022-08-05T08:27:35.743Z,94861.52
2022-08-05T08:30:29.382Z,94860.42
2022-08-05T08:33:02.564Z,94854.13
2022-08-05T08:35:40.854Z,94859.05
2022-08-05T08:38:11.821Z,94850.16
2022-08-05T08:40:50.467Z,94850.02
2022-08-05T08:45:21.420Z,94847.02
2022-08-05T08:46:10.047Z,94850.73
2022-08-05T08:49:07.810Z,94849.48
2022-08-05T08:52:04.306Z,94849.30
2022-08-05T08:54:21.302Z,94847.34
2022-08-05T08:56:56.582Z,94849.09
2022-08-05T08:59:27.546Z,94844.64
2022-08-05T09:01:57.326Z,94846.13
2022-08-05T09:04:30.292Z,94842.09
2022-08-05T09:06:58.806Z,94841.25
2022-08-05T09:09:32.517Z,94840.49
2022-08-05T09:12:19.948Z,94837.14
2022-08-05T09:14:56.457Z,94837.02
2022-08-05T09:17:40.411Z,94831.70
2022-08-05T09:20:10.873Z,94825.20
2022-08-05T09:23:05.102Z,94827.25
2022-08-05T09:25:59.869Z,94821.16
2022-08-05T09:28:31.895Z,94823.59
2022-08-05T09:31:44.008Z,94822.24
2022-08-05T09:34:07.806Z,94817.08
2022-08-05T09:36:55.209Z,94812.86
2022-08-05T09:39:39.530Z,94810.27
2022-08-05T09:42:23.210Z,94811.77
2022-08-05T09:44:56.195Z,94799.07
2022-08-05T09:47:48.353Z,94803.39
2022-08-05T09:50:38.122Z,94799.79
2022-08-05T09:53:08.833Z,94798.27
2022-08-05T09:55:56.198Z,94796.64
2022-08-05T09:58:29.246Z,94793.16
2022-08-05T10:01:15.096Z,94795.63
2022-08-05T10:04:00.717Z,94800.41
2022-08-05T10:06:28.504Z,94792.61
2022-08-05T10:08:56.103Z,94786.41
2022-08-05T10:11:23.623Z,94781.83
2022-08-05T10:13:54.560Z,94776.99
2022-08-05T10:16:32.258Z,94781.55
2022-08-05T10:19:08.514Z,94772.77
2022-08-05T10:21:40.113Z,94776.05
2022-08-05T10:24:13.441Z,94769.95
2022-08-05T10:26:51.910Z,94771.44
2022-08-05T10:29:24.213Z,94768.35
2022-08-05T10:32:52.054Z,94759.84
2022-08-05T10:35:01.061Z,94754.78
2022-08-05T10:37:37.502Z,94756.45
2022-08-05T10:40:34.228Z,94751.05
2022-08-05T10:43:36.437Z,94753.08
2022-08-05T10:46:08.820Z,94752.55
2022-08-05T10:48:52.612Z,94750.16
2022-08-05T10:51:29.274Z,94747.19
2022-08-05T10:54:05.810Z,94749.06
2022-08-05T10:56:57.816Z,94745.13
2022-08-05T11:00:02.060Z,94738.13
2022-08-05T11:02:38.247Z,94733.16
2022-08-05T11:05:10.715Z,94734.14
2022-08-05T11:08:02.875Z,94734.92
2022-08-05T11:10:33.786Z,94737.53
2022-08-05T11:13:01.433Z,94725.64
2022-08-05T11:16:01.217Z,94721.22
2022-08-05T11:18:34.112Z,94720.08
2022-08-05T11:21:11.328Z,94721.21
2022-08-05T11:24:02.765Z,94722.04
2022-08-05T11:26:32.467Z,94720.18
2022-08-05T11:29:12.123Z,94716.53
2022-08-05T11:31:56.338Z,94714.16
2022-08-05T11:34:51.575Z,94708.38
2022-08-05T11:38:30.972Z,94703.19
2022-08-05T11:41:03.400Z,94711.40
2022-08-05T11:44:07.551Z,94705.63
2022-08-05T11:46:58.698Z,94701.88
2022-08-05T11:49:36.154Z,94699.26
2022-08-05T11:52:08.764Z,94694.87
2022-08-05T11:54:41.704Z,94699.09
2022-08-05T11:57:24.939Z,94688.98
2022-08-05T11:59:54.341Z,94687.23
2022-08-05T12:02:32.979Z,94685.98
2022-08-05T12:05:07.041Z,94685.64
2022-08-05T12:08:03.782Z,94683.52
2022-08-05T12:10:38.629Z,94679.77
2022-08-05T12:13:27.725Z,94680.92
2022-08-05T12:16:15.724Z,94675.41
2022-08-05T12:18:49.014Z,94671.52
2022-08-05T12:21:24.157Z,94675.45
2022-08-05T12:24:04.472Z,94676.64
2022-08-05T12:26:39.818Z,94674.84
2022-08-05T12:29:22.909Z,94671.66
2022-08-05T12:31:56.520Z,94668.34
2022-08-05T12:34:30.278Z,94670.56
2022-08-05T12:37:03.397Z,94664.23
2022-08-05T12:39:34.651Z,94665.73
2022-08-05T12:42:10.129Z,94659.75
2022-08-05T12:44:43.115Z,94656.55
2022-08-05T12:47:12.617Z,94657.41
2022-08-05T12:50:01.969Z,94659.13
2022-08-05T12:52:35.384Z,94659.70
2022-08-05T12:55:23.769Z,94651.30
2022-08-05T12:58:38.735Z,94648.60
2022-08-05T13:02:00.763Z,94641.86
2022-08-05T13:03:42.431Z,94637.73
2022-08-05T13:06:16.508Z,94639.15
2022-08-05T13:08:51.847Z,94636.64
2022-08-05T13:12:01.128Z,94638.38
2022-08-05T13:14:25.071Z,94638.67
2022-08-05T13:17:16.553Z,94630.80
2022-08-05T13:20:09.036Z,94630.48
2022-08-05T13:22:41.315Z,94625.80
2022-08-05T13:25:18.816Z,94626.09
2022-08-05T13:27:51.420Z,94626.05
2022-08-05T13:30:34.869Z,94621.17
2022-08-05T13:33:03.972Z,94611.70
2022-08-05T13:35:43.326Z,94607.34
2022-08-05T13:38:28.388Z,94607.28
2022-08-05T13:41:00.206Z,94608.48
2022-08-05T13:43:45.410Z,94610.61
2022-08-05T13:46:16.317Z,94598.98
2022-08-05T13:48:57.366Z,94599.02
2022-08-05T13:51:36.686Z,94599.25
2022-08-05T13:54:13.452Z,94603.00
2022-08-05T13:56:45.237Z,94594.61
2022-08-05T13:59:27.284Z,94591.48
2022-08-05T14:01:58.210Z,94584.77
2022-08-05T14:04:49.409Z,94583.86
2022-08-05T14:07:56.510Z,94592.79
2022-08-05T14:10:08.567Z,94594.91
2022-08-05T14:12:35.747Z,94587.88
2022-08-05T14:15:22.069Z,94581.17
2022-08-05T14:17:49.803Z,94583.69
2022-08-05T14:20:17.659Z,94586.58
2022-08-05T14:22:50.222Z,94585.81
2022-08-05T14:25:22.088Z,94580.52
2022-08-05T14:27:51.169Z,94583.67
2022-08-05T14:30:20.414Z,94584.09
2022-08-05T14:32:49.107Z,94578.33
2022-08-05T14:35:20.881Z,94572.56
2022-08-05T14:37:55.041Z,94570.45
2022-08-05T14:40:24.289Z,94572.66
2022-08-05T14:42:52.015Z,94570.52
2022-08-05T14:45:19.148Z,94571.05
2022-08-05T14:48:04.070Z,94572.29
2022-08-05T14:50:39.797Z,94567.19
2022-08-05T14:53:07.713Z,94570.61
2022-08-05T14:55:39.097Z,94563.52
2022-08-05T14:58:10.879Z,94569.41
2022-08-05T15:00:57.914Z,94563.48
2022-08-05T15:03:33.383Z,94563.75
2022-08-05T15:06:14.775Z,94563.48
2022-08-05T15:08:59.233Z,94558.35
2022-08-05T15:11:50.920Z,94555.64
2022-08-05T15:14:33.952Z,94557.36
2022-08-05T15:17:05.021Z,94558.16
2022-08-05T15:19:37.125Z,94555.94
2022-08-05T15:22:06.116Z,94552.54
2022-08-05T15:24:32.849Z,94549.20
2022-08-05T15:26:59.701Z,94547.71
2022-08-05T15:29:30.102Z,94539.54
2022-08-05T15:32:02.302Z,94540.29
2022-08-05T15:34:33.625Z,94535.20
2022-08-05T15:37:06.909Z,94534.02
2022-08-05T15:41:01.189Z,94538.46
2022-08-05T15:42:57.520Z,94534.33
2022-08-05T15:45:16.971Z,94535.11
2022-08-05T15:47:46.798Z,94537.04
2022-08-05T15:50:15.408Z,94538.43
2022-08-05T15:52:53.410Z,94536.02
2022-08-05T15:55:24.554Z,94531.96
2022-08-05T15:57:52.453Z,94530.77
2022-08-05T16:00:26.502Z,94529.44
2022-08-05T16:03:07.036Z,94530.30
2022-08-05T16:05:34.137Z,94526.58
2022-08-05T16:08:00.963Z,94531.42
2022-08-05T16:10:27.942Z,94530.89
2022-08-05T16:12:56.352Z,94530.52
2022-08-05T16:15:24.050Z,94531.69
2022-08-05T16:17:59.409Z,94528.52
2022-08-05T16:20:27.814Z,94527.23
2022-08-05T16:22:55.239Z,94525.32
2022-08-05T16:25:33.788Z,94523.96
2022-08-05T16:28:06.517Z,94524.76
2022-08-05T16:30:37.931Z,94529.81
2022-08-05T16:33:05.483Z,94526.82
2022-08-05T16:35:34.643Z,94531.23
2022-08-05T16:38:24.700Z,94525.64
2022-08-05T16:40:59.610Z,94526.66
2022-08-05T16:43:31.948Z,94527.27
2022-08-05T16:46:05.233Z,94530.87
2022-08-05T16:48:38.517Z,94529.15
2022-08-05T16:51:09.098Z,94530.02
2022-08-05T16:54:06.230Z,94529.12
2022-08-05T16:56:31.203Z,94532.76
2022-08-05T16:58:58.943Z,94534.17
2022-08-05T17:01:31.670Z,94535.16
2022-08-05T17:04:15.300Z,94536.04
2022-08-05T17:06:42.141Z,94536.38
2022-08-05T17:09:09.597Z,94540.65
2022-08-05T17:11:48.636Z,94544.34
2022-08-05T17:14:34.258Z,94545.90
2022-08-05T17:17:02.690Z,94548.52
2022-08-05T17:19:29.631Z,94546.96
2022-08-05T17:21:57.559Z,94551.94
2022-08-05T17:24:35.162Z,94549.17
2022-08-05T17:27:05.804Z,94550.95
2022-08-05T17:29:33.324Z,94549.46
2022-08-05T17:32:11.171Z,94554.36
2022-08-05T17:34:40.589Z,94557.61
2022-08-05T17:37:37.699Z,94558.64
2022-08-05T17:39:57.529Z,94553.89
2022-08-05T17:42:32.156Z,94557.44
2022-08-05T17:45:18.091Z,94557.23
2022-08-05T17:47:53.417Z,94558.63
2022-08-05T17:50:28.533Z,94558.86
2022-08-05T17:52:59.517Z,94559.23
2022-08-05T17:55:38.332Z,94563.82
2022-08-05T17:58:09.357Z,94567.02
2022-08-05T18:00:37.009Z,94566.81
2022-08-05T18:03:07.926Z,94566.95
2022-08-05T18:05:38.049Z,94569.77
2022-08-05T18:08:05.391Z,94569.45
2022-08-05T18:10:34.662Z,94572.02
2022-08-05T18:13:12.178Z,94574.50
2022-08-05T18:15:39.512Z,94573.58
2022-08-05T18:18:11.333Z,94577.02
2022-08-05T18:20:39.013Z,94579.77
2022-08-05T18:23:09.295Z,94581.25
2022-08-05T18:25:39.502Z,94580.18
2022-08-05T18:28:10.936Z,94578.82
2022-08-05T18:30:40.263Z,94580.29
2022-08-05T18:33:08.654Z,94585.27
2022-08-05T18:35:59.874Z,94583.02
2022-08-05T18:40:34.496Z,94584.95
2022-08-05T18:42:52.131Z,94581.70
2022-08-05T18:45:19.321Z,94585.53
2022-08-05T18:47:51.507Z,94584.91
2022-08-05T18:50:42.345Z,94586.36
2022-08-05T18:53:20.615Z,94588.04
2022-08-05T18:55:51.427Z,94590.09
2022-08-05T18:58:18.821Z,94594.91
2022-08-05T19:00:54.640Z,94594.68
2022-08-05T19:03:55.154Z,94600.10
2022-08-05T19:06:18.813Z,94596.46
2022-08-05T19:08:49.384Z,94595.63
2022-08-05T19:11:20.421Z,94596.94
2022-08-05T19:14:00.912Z,94594.40
2022-08-05T19:16:36.868Z,94594.65
2022-08-05T19:19:14.598Z,94595.99
2022-08-05T19:21:41.369Z,94594.30
2022-08-05T19:24:12.520Z,94595.11
2022-08-05T19:26:54.390Z,94596.00
2022-08-05T19:29:23.079Z,94597.89
2022-08-05T19:31:51.365Z,94599.08
2022-08-05T19:34:18.663Z,94599.06
2022-08-05T19:36:45.860Z,94599.11
2022-08-05T19:39:17.347Z,94596.69
2022-08-05T19:42:05.883Z,94598.96
2022-08-05T19:44:31.176Z,94597.16
2022-08-05T19:46:57.982Z,94598.41
2022-08-05T19:49:24.813Z,94600.13
2022-08-05T19:52:05.821Z,94600.42
2022-08-05T19:54:38.473Z,94600.84
2022-08-05T19:57:09.152Z,94603.17
2022-08-05T19:59:55.369Z,94604.83
2022-08-05T20:02:26.946Z,94605.05
2022-08-05T20:04:58.885Z,94601.77
2022-08-05T20:07:48.626Z,94599.42
2022-08-05T20:10:17.479Z,94601.96
2022-08-05T20:12:49.223Z,94597.41
2022-08-05T20:15:23.073Z,94596.09
2022-08-05T20:18:10.320Z,94597.74
2022-08-05T20:20:55.214Z,94594.77
2022-08-05T20:23:24.195Z,94594.30
2022-08-05T20:26:08.915Z,94594.96
2022-08-05T20:28:48.926Z,94593.36
2022-08-05T20:31:16.855Z,94593.75
2022-08-05T20:33:44.980Z,94597.42
2022-08-05T20:36:14.315Z,94596.48
2022-08-05T20:38:53.770Z,94593.65
2022-08-05T20:41:27.393Z,94593.92
2022-08-05T20:44:18.566Z,94592.47
2022-08-05T20:46:57.492Z,94589.39
2022-08-05T20:49:26.084Z,94587.14
2022-08-05T20:51:54.737Z,94590.86
2022-08-05T20:54:23.070Z,94588.91
2022-08-05T20:56:53.012Z,94588.38
2022-08-05T20:59:27.171Z,94588.33
2022-08-05T21:02:07.711Z,94589.89
2022-08-05T21:04:36.279Z,94590.11
2022-08-05T21:07:04.549Z,94589.53
2022-08-05T21:09:31.521Z,94589.06
2022-08-05T21:12:10.423Z,94586.27
2022-08-05T21:14:39.534Z,94588.23
2022-08-05T21:17:06.680Z,94587.58
2022-08-05T21:19:46.954Z,94588.10
2022-08-05T21:22:17.821Z,94588.89
2022-08-05T21:24:51.442Z,94590.16
2022-08-05T21:27:20.549Z,94593.30
2022-08-05T21:29:52.629Z,94593.97
2022-08-05T21:32:21.173Z,94591.73
2022-08-05T21:34:55.999Z,94597.11
2022-08-05T21:37:41.163Z,94596.25
2022-08-05T21:40:13.187Z,94598.34
2022-08-05T21:42:44.553Z,94596.94
2022-08-05T21:45:12.384Z,94597.75
2022-08-05T21:47:56.774Z,94597.76
2022-08-05T21:50:26.568Z,94600.98
2022-08-05T21:52:58.904Z,94602.63
2022-08-05T21:56:01.050Z,94602.06
2022-08-05T21:58:19.274Z,94601.56
2022-08-05T22:00:51.102Z,94608.80
2022-08-05T22:03:18.408Z,94609.95
2022-08-05T22:06:06.483Z,94609.16
2022-08-05T22:08:35.236Z,94610.11
2022-08-05T22:11:02.037Z,94614.64
2022-08-05T22:14:19.654Z,94612.70
2022-08-05T22:16:41.595Z,94615.02
2022-08-05T22:19:14.994Z,94613.44
2022-08-05T22:21:55.039Z,94613.11
2022-08-05T22:24:52.452Z,94614.99
2022-08-05T22:28:09.781Z,94612.71
2022-08-05T22:30:25.770Z,94613.83
2022-08-05T22:33:02.265Z,94612.58
2022-08-05T22:35:31.108Z,94609.73
2022-08-05T22:38:15.285Z,94607.89
2022-08-05T22:40:42.164Z,94607.63
2022-08-05T22:43:37.155Z,94604.66
2022-08-05T22:46:13.444Z,94604.20
2022-08-05T22:48:47.769Z,94604.50
2022-08-05T22:51:15.976Z,94606.66
2022-08-05T22:53:51.187Z,94603.73
2022-08-05T22:56:30.223Z,94602.50
2022-08-05T22:58:59.982Z,94602.38
2022-08-05T23:01:50.922Z,94601.00
2022-08-05T23:04:17.914Z,94599.92
2022-08-05T23:06:44.642Z,94599.17
2022-08-05T23:09:26.951Z,94597.98
2022-08-05T23:11:59.016Z,94598.00
2022-08-05T23:14:32.171Z,94595.98
2022-08-05T23:17:24.498Z,94597.13
2022-08-05T23:20:01.092Z,94593.86
2022-08-05T23:22:29.683Z,94596.10
2022-08-05T23:24:57.739Z,94595.67
2022-08-05T23:27:31.339Z,94594.89
2022-08-05T23:30:12.425Z,94598.27
2022-08-05T23:32:45.127Z,94595.88
2022-08-05T23:35:12.416Z,94598.72
2022-08-05T23:37:39.977Z,94601.62
2022-08-05T23:40:09.624Z,94601.63
2022-08-05T23:42:38.831Z,94601.04
2022-08-05T23:45:14.460Z,94594.23
2022-08-05T23:47:48.260Z,94600.53
2022-08-05T23:50:20.298Z,94596.50
2022-08-05T23:52:50.113Z,94597.27
2022-08-05T23:55:19.569Z,94597.63
2022-08-05T23:57:49.044Z,94599.80
